Turinsk, Russia
Current Conditions -  °F | °C
As of 12:00 PM on Thursday 18 Dec 2014 (Local Time) from USTR Reporting Station
Broken Clouds Broken Clouds  
Wind Chill:   Ceiling: 700
Heat Index: 16°   Visibility: 6mi
Dew Point: 14°   Wind: 7mph
Humidity: 93%   Direction: 180°S
Pressure: 30.27"   Gusts: NA
Location:  58.05°N, 63.7°E
Report Text: USTR 180700Z 18003MPS 9999 BKN007 M09/M10 Q1025 NOSIG RMKQFE759/1012 21350063 30450250
Loading
Personal Weather Stations






























Interactive Weather Map New forecast layout! Learn more

10-Day Weather Forecast

Advertisements
Track Severe Weather on mobile